sensor_id;sensor_type;location;lat;lon;timestamp;P1;durP1;ratioP1;P2;durP2;ratioP2
22851;SDS011;11592;45.460;9.240;2023-04-15T00:01:18;7.10;;;1.85;;
22851;SDS011;11592;45.460;9.240;2023-04-15T00:03:46;4.80;;;1.90;;
22851;SDS011;11592;45.460;9.240;2023-04-15T00:06:13;4.70;;;1.50;;
22851;SDS011;11592;45.460;9.240;2023-04-15T00:08:40;4.05;;;1.70;;
22851;SDS011;11592;45.460;9.240;2023-04-15T00:11:07;5.05;;;1.42;;
22851;SDS011;11592;45.460;9.240;2023-04-15T00:13:34;2.22;;;1.50;;
22851;SDS011;11592;45.460;9.240;2023-04-15T00:16:01;3.42;;;1.40;;
22851;SDS011;11592;45.460;9.240;2023-04-15T00:18:28;4.05;;;1.60;;
22851;SDS011;11592;45.460;9.240;2023-04-15T00:20:55;2.97;;;1.40;;
22851;SDS011;11592;45.460;9.240;2023-04-15T00:23:22;4.55;;;1.50;;
22851;SDS011;11592;45.460;9.240;2023-04-15T00:25:49;3.08;;;1.50;;
22851;SDS011;11592;45.460;9.240;2023-04-15T00:28:16;3.55;;;1.80;;
22851;SDS011;11592;45.460;9.240;2023-04-15T00:30:43;3.97;;;1.45;;
22851;SDS011;11592;45.460;9.240;2023-04-15T00:33:11;8.38;;;2.20;;
22851;SDS011;11592;45.460;9.240;2023-04-15T00:35:38;3.92;;;1.67;;
22851;SDS011;11592;45.460;9.240;2023-04-15T00:38:05;3.83;;;1.85;;
22851;SDS011;11592;45.460;9.240;2023-04-15T00:40:36;6.90;;;2.15;;
22851;SDS011;11592;45.460;9.240;2023-04-15T00:43:03;2.72;;;1.65;;
22851;SDS011;11592;45.460;9.240;2023-04-15T00:45:30;3.80;;;1.80;;
22851;SDS011;11592;45.460;9.240;2023-04-15T00:47:58;3.15;;;1.58;;
22851;SDS011;11592;45.460;9.240;2023-04-15T00:50:25;4.22;;;1.83;;
22851;SDS011;11592;45.460;9.240;2023-04-15T00:52:52;2.45;;;1.40;;
22851;SDS011;11592;45.460;9.240;2023-04-15T00:55:19;2.90;;;1.58;;
22851;SDS011;11592;45.460;9.240;2023-04-15T00:57:46;5.85;;;1.50;;
22851;SDS011;11592;45.460;9.240;2023-04-15T01:00:13;6.18;;;2.08;;
22851;SDS011;11592;45.460;9.240;2023-04-15T01:02:40;3.75;;;1.83;;
22851;SDS011;11592;45.460;9.240;2023-04-15T01:05:07;3.65;;;1.80;;
22851;SDS011;11592;45.460;9.240;2023-04-15T01:07:34;3.08;;;1.92;;
22851;SDS011;11592;45.460;9.240;2023-04-15T01:10:02;2.33;;;1.55;;
22851;SDS011;11592;45.460;9.240;2023-04-15T01:12:29;5.03;;;2.00;;
22851;SDS011;11592;45.460;9.240;2023-04-15T01:14:58;3.97;;;2.13;;
22851;SDS011;11592;45.460;9.240;2023-04-15T01:17:26;4.78;;;2.47;;
22851;SDS011;11592;45.460;9.240;2023-04-15T01:19:54;2.72;;;1.83;;
22851;SDS011;11592;45.460;9.240;2023-04-15T01:22:23;3.35;;;2.00;;
22851;SDS011;11592;45.460;9.240;2023-04-15T01:25:04;4.45;;;2.05;;
22851;SDS011;11592;45.460;9.240;2023-04-15T01:27:43;7.50;;;2.20;;
22851;SDS011;11592;45.460;9.240;2023-04-15T01:30:10;5.90;;;2.35;;
22851;SDS011;11592;45.460;9.240;2023-04-15T01:32:37;6.30;;;2.65;;
22851;SDS011;11592;45.460;9.240;2023-04-15T01:35:04;7.00;;;2.40;;
22851;SDS011;11592;45.460;9.240;2023-04-15T01:37:31;4.57;;;2.58;;
22851;SDS011;11592;45.460;9.240;2023-04-15T01:39:58;5.03;;;2.80;;
22851;SDS011;11592;45.460;9.240;2023-04-15T01:42:25;3.72;;;2.53;;
22851;SDS011;11592;45.460;9.240;2023-04-15T01:44:53;6.45;;;2.88;;
22851;SDS011;11592;45.460;9.240;2023-04-15T01:47:19;6.78;;;3.03;;
22851;SDS011;11592;45.460;9.240;2023-04-15T01:49:47;5.43;;;2.63;;
22851;SDS011;11592;45.460;9.240;2023-04-15T01:52:13;8.20;;;3.33;;
22851;SDS011;11592;45.460;9.240;2023-04-15T01:54:40;6.35;;;3.10;;
22851;SDS011;11592;45.460;9.240;2023-04-15T01:57:07;10.35;;;3.20;;
22851;SDS011;11592;45.460;9.240;2023-04-15T01:59:34;6.80;;;3.30;;
22851;SDS011;11592;45.460;9.240;2023-04-15T02:02:02;6.20;;;3.15;;
22851;SDS011;11592;45.460;9.240;2023-04-15T02:04:29;5.63;;;3.20;;
22851;SDS011;11592;45.460;9.240;2023-04-15T02:06:56;5.75;;;2.85;;
22851;SDS011;11592;45.460;9.240;2023-04-15T02:09:23;4.82;;;3.08;;
22851;SDS011;11592;45.460;9.240;2023-04-15T02:11:51;4.05;;;2.97;;
22851;SDS011;11592;45.460;9.240;2023-04-15T02:14:19;6.57;;;3.40;;
22851;SDS011;11592;45.460;9.240;2023-04-15T02:16:46;5.25;;;3.08;;
22851;SDS011;11592;45.460;9.240;2023-04-15T02:19:13;8.13;;;3.75;;
22851;SDS011;11592;45.460;9.240;2023-04-15T02:21:40;8.73;;;3.72;;
22851;SDS011;11592;45.460;9.240;2023-04-15T02:24:07;8.30;;;3.85;;
22851;SDS011;11592;45.460;9.240;2023-04-15T02:26:34;5.65;;;3.70;;
22851;SDS011;11592;45.460;9.240;2023-04-15T02:29:01;4.63;;;3.55;;
22851;SDS011;11592;45.460;9.240;2023-04-15T02:31:28;6.35;;;3.47;;
22851;SDS011;11592;45.460;9.240;2023-04-15T02:33:55;7.13;;;3.58;;
22851;SDS011;11592;45.460;9.240;2023-04-15T02:36:22;6.93;;;4.03;;
22851;SDS011;11592;45.460;9.240;2023-04-15T02:38:49;6.78;;;4.03;;
22851;SDS011;11592;45.460;9.240;2023-04-15T02:41:16;6.10;;;4.05;;
22851;SDS011;11592;45.460;9.240;2023-04-15T02:43:42;7.72;;;4.20;;
22851;SDS011;11592;45.460;9.240;2023-04-15T02:46:09;7.55;;;3.88;;
22851;SDS011;11592;45.460;9.240;2023-04-15T02:48:40;5.25;;;4.05;;
22851;SDS011;11592;45.460;9.240;2023-04-15T02:51:13;9.68;;;4.22;;
22851;SDS011;11592;45.460;9.240;2023-04-15T02:53:41;8.55;;;4.13;;
22851;SDS011;11592;45.460;9.240;2023-04-15T02:56:08;7.90;;;5.07;;
22851;SDS011;11592;45.460;9.240;2023-04-15T02:58:36;7.90;;;4.85;;
22851;SDS011;11592;45.460;9.240;2023-04-15T03:01:03;10.85;;;4.78;;
22851;SDS011;11592;45.460;9.240;2023-04-15T03:03:30;8.60;;;4.85;;
22851;SDS011;11592;45.460;9.240;2023-04-15T03:05:57;7.20;;;4.70;;
22851;SDS011;11592;45.460;9.240;2023-04-15T03:08:24;11.25;;;4.72;;
22851;SDS011;11592;45.460;9.240;2023-04-15T03:10:51;11.10;;;4.88;;
22851;SDS011;11592;45.460;9.240;2023-04-15T03:13:19;10.63;;;5.05;;
22851;SDS011;11592;45.460;9.240;2023-04-15T03:15:46;9.27;;;5.22;;
22851;SDS011;11592;45.460;9.240;2023-04-15T03:18:13;9.20;;;4.95;;
22851;SDS011;11592;45.460;9.240;2023-04-15T03:20:40;8.40;;;5.22;;
22851;SDS011;11592;45.460;9.240;2023-04-15T03:23:07;10.40;;;4.72;;
22851;SDS011;11592;45.460;9.240;2023-04-15T03:25:34;8.93;;;5.38;;
22851;SDS011;11592;45.460;9.240;2023-04-15T03:28:02;8.55;;;5.07;;
22851;SDS011;11592;45.460;9.240;2023-04-15T03:30:29;9.27;;;5.75;;
22851;SDS011;11592;45.460;9.240;2023-04-15T03:32:56;7.15;;;4.50;;
22851;SDS011;11592;45.460;9.240;2023-04-15T03:35:22;11.15;;;5.20;;
22851;SDS011;11592;45.460;9.240;2023-04-15T03:37:49;7.18;;;4.95;;
22851;SDS011;11592;45.460;9.240;2023-04-15T03:40:16;11.07;;;5.13;;
22851;SDS011;11592;45.460;9.240;2023-04-15T03:42:43;9.82;;;5.10;;
22851;SDS011;11592;45.460;9.240;2023-04-15T03:45:10;9.48;;;4.82;;
22851;SDS011;11592;45.460;9.240;2023-04-15T03:47:37;11.60;;;4.70;;
22851;SDS011;11592;45.460;9.240;2023-04-15T03:50:04;11.70;;;5.40;;
22851;SDS011;11592;45.460;9.240;2023-04-15T03:52:31;8.00;;;5.35;;
22851;SDS011;11592;45.460;9.240;2023-04-15T03:54:58;7.90;;;4.97;;
22851;SDS011;11592;45.460;9.240;2023-04-15T03:57:24;7.88;;;5.65;;
22851;SDS011;11592;45.460;9.240;2023-04-15T03:59:51;9.05;;;5.70;;
22851;SDS011;11592;45.460;9.240;2023-04-15T04:02:18;12.68;;;5.72;;
22851;SDS011;11592;45.460;9.240;2023-04-15T04:04:45;8.57;;;5.47;;
22851;SDS011;11592;45.460;9.240;2023-04-15T04:07:15;8.27;;;5.60;;
22851;SDS011;11592;45.460;9.240;2023-04-15T04:09:43;12.75;;;5.90;;
22851;SDS011;11592;45.460;9.240;2023-04-15T04:12:12;9.98;;;5.60;;
22851;SDS011;11592;45.460;9.240;2023-04-15T04:14:39;11.90;;;5.63;;
22851;SDS011;11592;45.460;9.240;2023-04-15T04:17:06;10.18;;;5.38;;
22851;SDS011;11592;45.460;9.240;2023-04-15T04:19:33;9.75;;;5.53;;
22851;SDS011;11592;45.460;9.240;2023-04-15T04:22:00;10.63;;;5.72;;
22851;SDS011;11592;45.460;9.240;2023-04-15T04:24:27;11.35;;;5.90;;
22851;SDS011;11592;45.460;9.240;2023-04-15T04:26:54;12.13;;;6.13;;
22851;SDS011;11592;45.460;9.240;2023-04-15T04:29:22;8.05;;;5.38;;
22851;SDS011;11592;45.460;9.240;2023-04-15T04:31:49;12.07;;;5.97;;
22851;SDS011;11592;45.460;9.240;2023-04-15T04:34:16;10.85;;;5.72;;
22851;SDS011;11592;45.460;9.240;2023-04-15T04:36:43;9.80;;;5.80;;
22851;SDS011;11592;45.460;9.240;2023-04-15T04:39:09;11.25;;;6.30;;
22851;SDS011;11592;45.460;9.240;2023-04-15T04:41:36;11.23;;;5.97;;
22851;SDS011;11592;45.460;9.240;2023-04-15T04:44:03;11.52;;;6.53;;
22851;SDS011;11592;45.460;9.240;2023-04-15T04:46:30;13.50;;;6.68;;
22851;SDS011;11592;45.460;9.240;2023-04-15T04:48:56;15.00;;;7.22;;
22851;SDS011;11592;45.460;9.240;2023-04-15T04:51:23;11.27;;;6.28;;
22851;SDS011;11592;45.460;9.240;2023-04-15T04:53:51;15.52;;;6.30;;
22851;SDS011;11592;45.460;9.240;2023-04-15T04:56:18;10.77;;;6.25;;
22851;SDS011;11592;45.460;9.240;2023-04-15T04:58:45;10.25;;;6.50;;
22851;SDS011;11592;45.460;9.240;2023-04-15T05:01:11;17.48;;;6.80;;
22851;SDS011;11592;45.460;9.240;2023-04-15T05:03:38;11.82;;;6.20;;
22851;SDS011;11592;45.460;9.240;2023-04-15T05:06:05;13.27;;;6.07;;
22851;SDS011;11592;45.460;9.240;2023-04-15T05:08:34;11.73;;;5.80;;
22851;SDS011;11592;45.460;9.240;2023-04-15T05:11:02;9.32;;;5.85;;
22851;SDS011;11592;45.460;9.240;2023-04-15T05:13:29;12.60;;;5.95;;
22851;SDS011;11592;45.460;9.240;2023-04-15T05:15:56;10.25;;;6.10;;
22851;SDS011;11592;45.460;9.240;2023-04-15T05:18:22;9.82;;;5.75;;
22851;SDS011;11592;45.460;9.240;2023-04-15T05:20:49;11.98;;;5.93;;
22851;SDS011;11592;45.460;9.240;2023-04-15T05:23:16;13.10;;;5.45;;
22851;SDS011;11592;45.460;9.240;2023-04-15T05:25:43;10.77;;;5.75;;
22851;SDS011;11592;45.460;9.240;2023-04-15T05:28:10;10.52;;;5.63;;
22851;SDS011;11592;45.460;9.240;2023-04-15T05:30:37;11.25;;;5.15;;
22851;SDS011;11592;45.460;9.240;2023-04-15T05:33:04;9.25;;;5.68;;
22851;SDS011;11592;45.460;9.240;2023-04-15T05:35:31;12.27;;;6.85;;
22851;SDS011;11592;45.460;9.240;2023-04-15T05:37:58;11.02;;;5.15;;
22851;SDS011;11592;45.460;9.240;2023-04-15T05:40:24;11.90;;;5.47;;
22851;SDS011;11592;45.460;9.240;2023-04-15T05:42:51;10.70;;;5.07;;
22851;SDS011;11592;45.460;9.240;2023-04-15T05:45:18;9.73;;;5.00;;
22851;SDS011;11592;45.460;9.240;2023-04-15T05:47:45;9.95;;;5.15;;
22851;SDS011;11592;45.460;9.240;2023-04-15T05:50:12;13.93;;;5.05;;
22851;SDS011;11592;45.460;9.240;2023-04-15T05:52:38;8.50;;;4.53;;
22851;SDS011;11592;45.460;9.240;2023-04-15T05:55:05;8.98;;;4.95;;
22851;SDS011;11592;45.460;9.240;2023-04-15T05:57:32;9.90;;;4.82;;
22851;SDS011;11592;45.460;9.240;2023-04-15T05:59:59;9.48;;;5.00;;
22851;SDS011;11592;45.460;9.240;2023-04-15T06:02:26;9.07;;;4.68;;
22851;SDS011;11592;45.460;9.240;2023-04-15T06:04:53;9.77;;;4.68;;
22851;SDS011;11592;45.460;9.240;2023-04-15T06:07:20;10.30;;;4.53;;
22851;SDS011;11592;45.460;9.240;2023-04-15T06:09:47;9.23;;;4.60;;
22851;SDS011;11592;45.460;9.240;2023-04-15T06:12:14;8.95;;;4.60;;
22851;SDS011;11592;45.460;9.240;2023-04-15T06:14:42;9.18;;;4.28;;
22851;SDS011;11592;45.460;9.240;2023-04-15T06:17:08;11.27;;;4.50;;
22851;SDS011;11592;45.460;9.240;2023-04-15T06:19:35;6.75;;;3.22;;
22851;SDS011;11592;45.460;9.240;2023-04-15T06:22:02;6.53;;;3.20;;
22851;SDS011;11592;45.460;9.240;2023-04-15T06:24:29;7.28;;;3.35;;
22851;SDS011;11592;45.460;9.240;2023-04-15T06:26:56;6.00;;;3.60;;
22851;SDS011;11592;45.460;9.240;2023-04-15T06:29:23;6.60;;;3.38;;
22851;SDS011;11592;45.460;9.240;2023-04-15T06:31:50;6.43;;;3.15;;
22851;SDS011;11592;45.460;9.240;2023-04-15T06:34:16;5.70;;;3.30;;
22851;SDS011;11592;45.460;9.240;2023-04-15T06:36:43;6.63;;;3.35;;
22851;SDS011;11592;45.460;9.240;2023-04-15T06:39:10;9.05;;;4.05;;
22851;SDS011;11592;45.460;9.240;2023-04-15T06:41:37;4.65;;;2.97;;
22851;SDS011;11592;45.460;9.240;2023-04-15T06:44:04;6.68;;;3.22;;
22851;SDS011;11592;45.460;9.240;2023-04-15T06:46:31;7.72;;;3.67;;
22851;SDS011;11592;45.460;9.240;2023-04-15T06:48:58;5.82;;;3.65;;
22851;SDS011;11592;45.460;9.240;2023-04-15T06:51:26;6.60;;;4.00;;
22851;SDS011;11592;45.460;9.240;2023-04-15T06:53:53;6.53;;;3.85;;
22851;SDS011;11592;45.460;9.240;2023-04-15T06:56:20;7.03;;;3.88;;
22851;SDS011;11592;45.460;9.240;2023-04-15T06:58:47;8.57;;;4.13;;
22851;SDS011;11592;45.460;9.240;2023-04-15T07:01:14;8.02;;;4.15;;
22851;SDS011;11592;45.460;9.240;2023-04-15T07:03:41;7.97;;;4.47;;
22851;SDS011;11592;45.460;9.240;2023-04-15T07:06:08;9.93;;;4.32;;
22851;SDS011;11592;45.460;9.240;2023-04-15T07:08:35;10.23;;;4.00;;
22851;SDS011;11592;45.460;9.240;2023-04-15T07:11:02;23.00;;;6.07;;
22851;SDS011;11592;45.460;9.240;2023-04-15T07:13:29;15.65;;;6.13;;
22851;SDS011;11592;45.460;9.240;2023-04-15T07:15:57;10.10;;;3.90;;
22851;SDS011;11592;45.460;9.240;2023-04-15T07:18:24;6.35;;;3.60;;
22851;SDS011;11592;45.460;9.240;2023-04-15T07:20:51;6.70;;;4.40;;
22851;SDS011;11592;45.460;9.240;2023-04-15T07:23:17;7.22;;;3.88;;
22851;SDS011;11592;45.460;9.240;2023-04-15T07:25:44;6.45;;;3.78;;
22851;SDS011;11592;45.460;9.240;2023-04-15T07:28:12;9.60;;;4.70;;
22851;SDS011;11592;45.460;9.240;2023-04-15T07:30:39;8.05;;;3.92;;
22851;SDS011;11592;45.460;9.240;2023-04-15T07:33:06;7.38;;;4.45;;
22851;SDS011;11592;45.460;9.240;2023-04-15T07:35:32;8.48;;;4.18;;
22851;SDS011;11592;45.460;9.240;2023-04-15T07:37:59;8.20;;;4.40;;
22851;SDS011;11592;45.460;9.240;2023-04-15T07:40:26;5.90;;;4.22;;
22851;SDS011;11592;45.460;9.240;2023-04-15T07:42:56;8.38;;;4.60;;
22851;SDS011;11592;45.460;9.240;2023-04-15T07:45:23;9.40;;;4.22;;
22851;SDS011;11592;45.460;9.240;2023-04-15T07:47:50;6.95;;;4.50;;
22851;SDS011;11592;45.460;9.240;2023-04-15T07:50:17;8.27;;;3.97;;
22851;SDS011;11592;45.460;9.240;2023-04-15T07:52:44;8.63;;;4.55;;
22851;SDS011;11592;45.460;9.240;2023-04-15T07:55:11;9.70;;;4.40;;
22851;SDS011;11592;45.460;9.240;2023-04-15T07:57:38;7.85;;;5.05;;
22851;SDS011;11592;45.460;9.240;2023-04-15T08:00:05;8.50;;;4.68;;
22851;SDS011;11592;45.460;9.240;2023-04-15T08:02:33;11.30;;;4.30;;
22851;SDS011;11592;45.460;9.240;2023-04-15T08:05:02;8.50;;;4.10;;
22851;SDS011;11592;45.460;9.240;2023-04-15T08:07:29;9.63;;;5.03;;
22851;SDS011;11592;45.460;9.240;2023-04-15T08:09:56;6.07;;;4.22;;
22851;SDS011;11592;45.460;9.240;2023-04-15T08:12:23;7.93;;;4.68;;
22851;SDS011;11592;45.460;9.240;2023-04-15T08:14:50;10.40;;;4.47;;
22851;SDS011;11592;45.460;9.240;2023-04-15T08:17:17;9.27;;;4.68;;
22851;SDS011;11592;45.460;9.240;2023-04-15T08:19:44;6.25;;;4.40;;
22851;SDS011;11592;45.460;9.240;2023-04-15T08:22:11;8.90;;;4.65;;
22851;SDS011;11592;45.460;9.240;2023-04-15T08:24:43;10.18;;;4.78;;
22851;SDS011;11592;45.460;9.240;2023-04-15T08:27:10;7.80;;;4.63;;
22851;SDS011;11592;45.460;9.240;2023-04-15T08:29:37;7.15;;;4.45;;
22851;SDS011;11592;45.460;9.240;2023-04-15T08:32:05;6.45;;;4.28;;
22851;SDS011;11592;45.460;9.240;2023-04-15T08:34:33;6.97;;;4.95;;
22851;SDS011;11592;45.460;9.240;2023-04-15T08:37:00;8.20;;;4.20;;
22851;SDS011;11592;45.460;9.240;2023-04-15T08:39:27;10.30;;;4.22;;
22851;SDS011;11592;45.460;9.240;2023-04-15T08:42:00;8.88;;;4.10;;
22851;SDS011;11592;45.460;9.240;2023-04-15T08:44:29;9.05;;;4.75;;
22851;SDS011;11592;45.460;9.240;2023-04-15T08:47:01;7.10;;;4.30;;
22851;SDS011;11592;45.460;9.240;2023-04-15T08:49:29;10.07;;;4.40;;
22851;SDS011;11592;45.460;9.240;2023-04-15T08:51:58;6.15;;;3.78;;
22851;SDS011;11592;45.460;9.240;2023-04-15T08:54:25;6.32;;;3.65;;
22851;SDS011;11592;45.460;9.240;2023-04-15T08:56:53;6.47;;;4.07;;
22851;SDS011;11592;45.460;9.240;2023-04-15T08:59:20;6.43;;;4.13;;
22851;SDS011;11592;45.460;9.240;2023-04-15T09:01:48;7.85;;;4.18;;
22851;SDS011;11592;45.460;9.240;2023-04-15T09:04:18;6.57;;;4.65;;
22851;SDS011;11592;45.460;9.240;2023-04-15T09:06:45;10.30;;;5.97;;
22851;SDS011;11592;45.460;9.240;2023-04-15T09:09:12;8.13;;;3.90;;
22851;SDS011;11592;45.460;9.240;2023-04-15T09:11:40;8.20;;;4.07;;
22851;SDS011;11592;45.460;9.240;2023-04-15T09:14:07;7.10;;;3.88;;
22851;SDS011;11592;45.460;9.240;2023-04-15T09:19:24;8.00;;;3.70;;
22851;SDS011;11592;45.460;9.240;2023-04-15T09:21:52;6.53;;;4.07;;
22851;SDS011;11592;45.460;9.240;2023-04-15T09:24:24;9.73;;;4.15;;
22851;SDS011;11592;45.460;9.240;2023-04-15T09:26:59;5.37;;;3.57;;
22851;SDS011;11592;45.460;9.240;2023-04-15T09:29:25;6.57;;;3.65;;
22851;SDS011;11592;45.460;9.240;2023-04-15T09:31:52;7.18;;;3.95;;
22851;SDS011;11592;45.460;9.240;2023-04-15T09:34:19;6.97;;;3.38;;
22851;SDS011;11592;45.460;9.240;2023-04-15T09:39:16;7.68;;;3.20;;
22851;SDS011;11592;45.460;9.240;2023-04-15T09:41:43;6.68;;;3.47;;
22851;SDS011;11592;45.460;9.240;2023-04-15T09:44:21;5.40;;;3.30;;
22851;SDS011;11592;45.460;9.240;2023-04-15T09:46:51;6.47;;;3.30;;
22851;SDS011;11592;45.460;9.240;2023-04-15T09:49:18;7.53;;;3.90;;
22851;SDS011;11592;45.460;9.240;2023-04-15T09:51:46;6.20;;;3.53;;
22851;SDS011;11592;45.460;9.240;2023-04-15T09:54:36;6.95;;;3.40;;
22851;SDS011;11592;45.460;9.240;2023-04-15T09:57:04;7.50;;;3.17;;
22851;SDS011;11592;45.460;9.240;2023-04-15T09:59:32;4.93;;;2.80;;
22851;SDS011;11592;45.460;9.240;2023-04-15T10:01:59;6.78;;;3.15;;
22851;SDS011;11592;45.460;9.240;2023-04-15T10:04:27;6.60;;;3.08;;
22851;SDS011;11592;45.460;9.240;2023-04-15T10:06:55;6.75;;;3.50;;
22851;SDS011;11592;45.460;9.240;2023-04-15T10:09:22;4.97;;;2.92;;
22851;SDS011;11592;45.460;9.240;2023-04-15T10:11:49;7.82;;;3.25;;
22851;SDS011;11592;45.460;9.240;2023-04-15T10:14:17;8.93;;;3.65;;
22851;SDS011;11592;45.460;9.240;2023-04-15T10:16:44;6.68;;;3.42;;
22851;SDS011;11592;45.460;9.240;2023-04-15T10:19:14;4.97;;;3.33;;
22851;SDS011;11592;45.460;9.240;2023-04-15T10:21:44;7.07;;;3.00;;
22851;SDS011;11592;45.460;9.240;2023-04-15T10:24:11;5.88;;;2.90;;
22851;SDS011;11592;45.460;9.240;2023-04-15T10:26:38;10.32;;;2.92;;
22851;SDS011;11592;45.460;9.240;2023-04-15T10:29:06;7.80;;;3.25;;
22851;SDS011;11592;45.460;9.240;2023-04-15T10:31:34;7.95;;;3.22;;
22851;SDS011;11592;45.460;9.240;2023-04-15T10:34:03;10.10;;;3.17;;
22851;SDS011;11592;45.460;9.240;2023-04-15T10:36:32;10.65;;;3.55;;
22851;SDS011;11592;45.460;9.240;2023-04-15T10:38:59;6.45;;;2.80;;
22851;SDS011;11592;45.460;9.240;2023-04-15T10:41:26;8.13;;;3.53;;
22851;SDS011;11592;45.460;9.240;2023-04-15T10:44:03;6.10;;;3.28;;
22851;SDS011;11592;45.460;9.240;2023-04-15T10:46:43;7.93;;;3.38;;
22851;SDS011;11592;45.460;9.240;2023-04-15T10:51:42;8.40;;;3.17;;
22851;SDS011;11592;45.460;9.240;2023-04-15T10:56:51;12.73;;;3.35;;
22851;SDS011;11592;45.460;9.240;2023-04-15T10:59:38;5.07;;;3.13;;
22851;SDS011;11592;45.460;9.240;2023-04-15T11:02:38;10.98;;;3.50;;
22851;SDS011;11592;45.460;9.240;2023-04-15T11:05:07;9.30;;;3.25;;
22851;SDS011;11592;45.460;9.240;2023-04-15T11:07:51;11.25;;;3.90;;
22851;SDS011;11592;45.460;9.240;2023-04-15T11:12:57;13.57;;;3.40;;
22851;SDS011;11592;45.460;9.240;2023-04-15T11:20:50;10.73;;;3.40;;
22851;SDS011;11592;45.460;9.240;2023-04-15T11:23:27;10.43;;;3.20;;
22851;SDS011;11592;45.460;9.240;2023-04-15T11:25:54;4.57;;;3.05;;
22851;SDS011;11592;45.460;9.240;2023-04-15T11:28:27;7.47;;;3.28;;
22851;SDS011;11592;45.460;9.240;2023-04-15T11:30:55;14.57;;;3.60;;
22851;SDS011;11592;45.460;9.240;2023-04-15T11:33:23;8.18;;;3.08;;
22851;SDS011;11592;45.460;9.240;2023-04-15T11:35:51;9.07;;;3.10;;
22851;SDS011;11592;45.460;9.240;2023-04-15T11:38:19;5.95;;;3.10;;
22851;SDS011;11592;45.460;9.240;2023-04-15T11:40:47;7.60;;;2.83;;
22851;SDS011;11592;45.460;9.240;2023-04-15T11:43:16;9.57;;;2.85;;
22851;SDS011;11592;45.460;9.240;2023-04-15T11:48:14;7.80;;;2.90;;
22851;SDS011;11592;45.460;9.240;2023-04-15T11:50:41;8.75;;;3.33;;
22851;SDS011;11592;45.460;9.240;2023-04-15T11:53:08;9.82;;;2.92;;
22851;SDS011;11592;45.460;9.240;2023-04-15T11:55:45;7.40;;;2.70;;
22851;SDS011;11592;45.460;9.240;2023-04-15T11:58:20;9.50;;;3.33;;
22851;SDS011;11592;45.460;9.240;2023-04-15T12:00:50;4.85;;;2.28;;
22851;SDS011;11592;45.460;9.240;2023-04-15T12:03:29;10.95;;;2.97;;
22851;SDS011;11592;45.460;9.240;2023-04-15T12:13:55;6.55;;;2.58;;
22851;SDS011;11592;45.460;9.240;2023-04-15T12:16:29;7.80;;;2.60;;
22851;SDS011;11592;45.460;9.240;2023-04-15T12:18:57;7.18;;;2.78;;
22851;SDS011;11592;45.460;9.240;2023-04-15T12:21:26;12.48;;;2.70;;
22851;SDS011;11592;45.460;9.240;2023-04-15T12:24:00;6.13;;;2.40;;
22851;SDS011;11592;45.460;9.240;2023-04-15T12:26:29;10.20;;;2.90;;
22851;SDS011;11592;45.460;9.240;2023-04-15T12:29:00;5.70;;;2.42;;
22851;SDS011;11592;45.460;9.240;2023-04-15T12:31:28;5.10;;;2.40;;
22851;SDS011;11592;45.460;9.240;2023-04-15T12:33:58;6.10;;;2.35;;
22851;SDS011;11592;45.460;9.240;2023-04-15T12:36:26;15.77;;;2.90;;
22851;SDS011;11592;45.460;9.240;2023-04-15T12:38:55;11.23;;;2.92;;
22851;SDS011;11592;45.460;9.240;2023-04-15T12:41:22;5.85;;;2.10;;
22851;SDS011;11592;45.460;9.240;2023-04-15T12:43:49;5.80;;;2.42;;
22851;SDS011;11592;45.460;9.240;2023-04-15T12:46:16;4.47;;;2.05;;
22851;SDS011;11592;45.460;9.240;2023-04-15T12:48:43;7.32;;;2.55;;
22851;SDS011;11592;45.460;9.240;2023-04-15T12:51:11;8.48;;;2.28;;
22851;SDS011;11592;45.460;9.240;2023-04-15T12:53:37;10.10;;;2.35;;
22851;SDS011;11592;45.460;9.240;2023-04-15T12:56:04;4.85;;;2.08;;
22851;SDS011;11592;45.460;9.240;2023-04-15T12:58:31;3.90;;;1.80;;
22851;SDS011;11592;45.460;9.240;2023-04-15T13:00:58;5.88;;;2.00;;
22851;SDS011;11592;45.460;9.240;2023-04-15T13:03:25;7.40;;;2.22;;
22851;SDS011;11592;45.460;9.240;2023-04-15T13:05:52;6.72;;;2.20;;
22851;SDS011;11592;45.460;9.240;2023-04-15T13:08:19;5.60;;;1.80;;
22851;SDS011;11592;45.460;9.240;2023-04-15T13:10:46;6.88;;;2.05;;
22851;SDS011;11592;45.460;9.240;2023-04-15T13:13:13;4.85;;;1.98;;
22851;SDS011;11592;45.460;9.240;2023-04-15T13:15:40;6.38;;;1.52;;
22851;SDS011;11592;45.460;9.240;2023-04-15T13:18:10;6.25;;;1.92;;
22851;SDS011;11592;45.460;9.240;2023-04-15T13:20:37;6.78;;;1.70;;
22851;SDS011;11592;45.460;9.240;2023-04-15T13:23:04;8.32;;;2.00;;
22851;SDS011;11592;45.460;9.240;2023-04-15T13:25:31;5.57;;;2.40;;
22851;SDS011;11592;45.460;9.240;2023-04-15T13:27:58;6.97;;;3.08;;
22851;SDS011;11592;45.460;9.240;2023-04-15T13:30:26;7.47;;;2.28;;
22851;SDS011;11592;45.460;9.240;2023-04-15T13:32:53;6.47;;;2.35;;
22851;SDS011;11592;45.460;9.240;2023-04-15T13:35:20;6.32;;;2.00;;
22851;SDS011;11592;45.460;9.240;2023-04-15T13:37:47;4.45;;;2.03;;
22851;SDS011;11592;45.460;9.240;2023-04-15T13:40:14;8.93;;;2.30;;
22851;SDS011;11592;45.460;9.240;2023-04-15T13:42:41;4.30;;;1.80;;
22851;SDS011;11592;45.460;9.240;2023-04-15T13:45:08;8.55;;;2.40;;
22851;SDS011;11592;45.460;9.240;2023-04-15T13:47:35;6.13;;;2.25;;
22851;SDS011;11592;45.460;9.240;2023-04-15T13:50:02;5.63;;;2.42;;
22851;SDS011;11592;45.460;9.240;2023-04-15T13:52:29;4.97;;;2.03;;
22851;SDS011;11592;45.460;9.240;2023-04-15T13:54:56;5.43;;;1.88;;
22851;SDS011;11592;45.460;9.240;2023-04-15T13:57:43;5.57;;;2.08;;
22851;SDS011;11592;45.460;9.240;2023-04-15T14:00:10;7.60;;;2.05;;
22851;SDS011;11592;45.460;9.240;2023-04-15T14:02:38;6.28;;;1.90;;
22851;SDS011;11592;45.460;9.240;2023-04-15T14:05:06;8.77;;;2.50;;
22851;SDS011;11592;45.460;9.240;2023-04-15T14:07:33;6.97;;;2.40;;
22851;SDS011;11592;45.460;9.240;2023-04-15T14:10:01;7.75;;;2.00;;
22851;SDS011;11592;45.460;9.240;2023-04-15T14:12:28;4.43;;;2.03;;
22851;SDS011;11592;45.460;9.240;2023-04-15T14:14:55;9.38;;;2.38;;
22851;SDS011;11592;45.460;9.240;2023-04-15T14:17:22;8.68;;;2.10;;
22851;SDS011;11592;45.460;9.240;2023-04-15T14:19:49;6.60;;;2.22;;
22851;SDS011;11592;45.460;9.240;2023-04-15T14:22:15;6.18;;;2.70;;
22851;SDS011;11592;45.460;9.240;2023-04-15T14:24:44;4.90;;;2.85;;
22851;SDS011;11592;45.460;9.240;2023-04-15T14:27:10;8.85;;;3.50;;
22851;SDS011;11592;45.460;9.240;2023-04-15T14:29:37;6.85;;;3.80;;
22851;SDS011;11592;45.460;9.240;2023-04-15T14:32:04;13.13;;;4.00;;
22851;SDS011;11592;45.460;9.240;2023-04-15T14:34:37;8.93;;;2.97;;
22851;SDS011;11592;45.460;9.240;2023-04-15T14:37:04;7.47;;;3.35;;
22851;SDS011;11592;45.460;9.240;2023-04-15T14:39:31;7.25;;;3.33;;
22851;SDS011;11592;45.460;9.240;2023-04-15T14:41:58;11.60;;;3.22;;
22851;SDS011;11592;45.460;9.240;2023-04-15T14:44:25;7.57;;;3.20;;
22851;SDS011;11592;45.460;9.240;2023-04-15T14:46:51;7.57;;;3.00;;
22851;SDS011;11592;45.460;9.240;2023-04-15T14:49:18;6.38;;;3.47;;
22851;SDS011;11592;45.460;9.240;2023-04-15T14:51:45;7.35;;;3.05;;
22851;SDS011;11592;45.460;9.240;2023-04-15T14:54:12;9.05;;;3.70;;
22851;SDS011;11592;45.460;9.240;2023-04-15T14:56:39;6.80;;;3.45;;
22851;SDS011;11592;45.460;9.240;2023-04-15T14:59:06;6.88;;;2.88;;
22851;SDS011;11592;45.460;9.240;2023-04-15T15:01:33;5.78;;;3.40;;
22851;SDS011;11592;45.460;9.240;2023-04-15T15:03:59;6.35;;;3.08;;
22851;SDS011;11592;45.460;9.240;2023-04-15T15:06:26;7.75;;;2.97;;
22851;SDS011;11592;45.460;9.240;2023-04-15T15:08:53;8.93;;;3.00;;
22851;SDS011;11592;45.460;9.240;2023-04-15T15:11:20;8.45;;;2.72;;
22851;SDS011;11592;45.460;9.240;2023-04-15T15:13:47;8.50;;;2.97;;
22851;SDS011;11592;45.460;9.240;2023-04-15T15:16:14;7.13;;;3.25;;
22851;SDS011;11592;45.460;9.240;2023-04-15T15:18:40;4.55;;;2.55;;